Time;durP1;ratioP1;P1;durP2;ratioP2;P2;SDS_P1;SDS_P2;PMS_P1;PMS_P2;Temp;Humidity;BMP_temperature;BMP_pressure;BME280_temperature;BME280_humidity;BME280_pressure;Samples;Min_cycle;Max_cycle;Signal;HPM_P1;HPM_P2
2022/09/04 00:01:07;;;;;;;7.90;5.33;;;25.10;33.40;;;;;;5000899;28;20460;-79
2022/09/04 00:03:40;;;;;;;6.53;5.67;;;25.10;33.40;;;;;;4987278;28;20463;-78
2022/09/04 00:06:12;;;;;;;8.00;6.30;;;25.10;33.50;;;;;;4978268;28;20484;-79
2022/09/04 00:08:48;;;;;;;8.20;6.13;;;25.20;33.60;;;;;;4977413;28;20455;-79
2022/09/04 00:11:30;;;;;;;7.07;6.20;;;25.10;33.40;;;;;;4978725;28;20429;-78
2022/09/04 00:13:59;;;;;;;6.40;4.87;;;25.00;33.70;;;;;;4978373;28;20457;-79
2022/09/04 00:16:28;;;;;;;4.40;4.03;;;25.00;33.70;;;;;;4979259;28;20543;-78
2022/09/04 00:19:01;;;;;;;10.50;4.33;;;24.90;33.70;;;;;;4986598;28;20458;-79
2022/09/04 00:21:32;;;;;;;4.27;3.80;;;25.00;34.00;;;;;;4996999;28;20536;-78
2022/09/04 00:24:03;;;;;;;3.80;3.50;;;25.00;33.80;;;;;;4998158;28;20454;-79
2022/09/04 00:26:39;;;;;;;8.30;3.83;;;24.90;33.80;;;;;;4997905;28;20510;-77
2022/09/04 00:29:11;;;;;;;6.60;4.57;;;24.90;34.20;;;;;;4996290;28;20477;-77
2022/09/04 00:31:42;;;;;;;5.87;4.33;;;24.90;33.90;;;;;;4997450;28;20453;-80
2022/09/04 00:34:17;;;;;;;6.67;5.13;;;24.80;34.10;;;;;;4996593;28;20478;-77
2022/09/04 00:36:47;;;;;;;7.30;4.50;;;24.80;34.10;;;;;;4986765;28;20486;-77
2022/09/04 00:39:21;;;;;;;6.93;4.30;;;24.80;34.30;;;;;;4992231;28;20420;-77
2022/09/04 00:41:57;;;;;;;4.80;3.73;;;24.70;34.10;;;;;;4996794;28;20438;-78
2022/09/04 00:44:51;;;;;;;5.90;4.87;;;24.80;34.40;;;;;;4998758;28;20952;-78
2022/09/04 00:47:39;;;;;;;10.50;4.90;;;24.70;34.30;;;;;;4988610;28;20532;-78
2022/09/04 00:50:36;;;;;;;5.03;4.43;;;24.70;34.30;;;;;;4999186;28;20470;-78
2022/09/04 00:53:22;;;;;;;9.60;4.80;;;24.50;34.50;;;;;;4997702;28;20445;-78
2022/09/04 00:55:58;;;;;;;5.10;4.60;;;24.50;34.60;;;;;;4993372;28;20447;-78
2022/09/04 00:58:37;;;;;;;6.80;4.80;;;24.40;34.40;;;;;;4975433;28;20452;-77
2022/09/04 01:01:05;;;;;;;6.20;4.90;;;24.40;34.60;;;;;;4975744;28;20457;-77
2022/09/04 01:03:50;;;;;;;5.30;4.80;;;24.40;34.60;;;;;;4976178;28;20420;-77
2022/09/04 01:06:28;;;;;;;6.00;4.60;;;24.30;34.40;;;;;;4975487;28;20578;-77
2022/09/04 01:09:23;;;;;;;4.60;4.10;;;24.30;34.50;;;;;;4975918;28;20446;-78
2022/09/04 01:11:58;;;;;;;7.57;4.70;;;24.30;34.60;;;;;;4988515;28;20500;-79
2022/09/04 01:14:32;;;;;;;6.63;5.07;;;24.30;34.60;;;;;;4979104;28;20477;-78
2022/09/04 01:17:03;;;;;;;8.77;4.80;;;24.40;34.70;;;;;;4975984;28;20426;-78
2022/09/04 01:19:40;;;;;;;6.30;5.00;;;24.30;34.60;;;;;;4976357;28;20490;-78
2022/09/04 01:22:21;;;;;;;5.60;5.10;;;24.20;34.80;;;;;;4975381;28;20533;-77
2022/09/04 01:24:59;;;;;;;5.60;5.10;;;24.30;34.80;;;;;;4973751;28;20466;-78
2022/09/04 01:27:30;;;;;;;6.97;5.63;;;24.30;34.80;;;;;;4976179;28;20464;-79
2022/09/04 01:30:04;;;;;;;14.10;6.20;;;24.20;34.70;;;;;;4984562;28;20540;-78
2022/09/04 01:32:36;;;;;;;11.80;6.90;;;24.20;34.80;;;;;;4976800;28;20510;-78
2022/09/04 01:35:08;;;;;;;17.80;10.53;;;24.20;35.00;;;;;;4976158;28;20466;-78
2022/09/04 01:37:43;;;;;;;13.10;9.37;;;24.20;35.00;;;;;;4975899;28;20499;-79
2022/09/04 01:40:28;;;;;;;8.50;7.53;;;24.20;35.10;;;;;;4975696;28;20415;-79
2022/09/04 01:43:06;;;;;;;6.93;5.83;;;24.20;35.00;;;;;;4980573;28;20952;-78
2022/09/04 01:45:42;;;;;;;10.47;5.50;;;24.20;35.00;;;;;;4985255;28;20513;-78
2022/09/04 01:48:11;;;;;;;6.20;4.90;;;24.10;34.90;;;;;;4976590;28;20500;-78
2022/09/04 01:50:39;;;;;;;6.67;5.00;;;24.10;35.10;;;;;;4985270;28;20612;-78
2022/09/04 01:53:09;;;;;;;12.33;5.27;;;24.00;35.80;;;;;;4977605;28;20448;-78
2022/09/04 01:55:38;;;;;;;6.03;5.33;;;24.00;35.30;;;;;;4977889;28;20519;-78
2022/09/04 01:58:16;;;;;;;4.87;4.30;;;23.90;35.30;;;;;;4978698;28;20465;-78
2022/09/04 02:00:49;;;;;;;6.57;5.07;;;24.00;36.30;;;;;;4977397;28;20434;-78
2022/09/04 02:03:23;;;;;;;6.90;5.50;;;24.00;35.20;;;;;;4975926;28;20436;-78
2022/09/04 02:06:00;;;;;;;13.73;6.47;;;24.00;35.40;;;;;;4975904;28;20451;-78
2022/09/04 02:08:35;;;;;;;7.33;6.00;;;24.00;35.50;;;;;;4974682;28;20465;-78
2022/09/04 02:11:04;;;;;;;8.27;6.63;;;23.90;35.30;;;;;;4974980;28;20484;-78
2022/09/04 02:13:39;;;;;;;8.00;5.90;;;23.80;35.40;;;;;;4973335;28;20552;-77
2022/09/04 02:16:09;;;;;;;9.97;6.30;;;23.90;35.50;;;;;;4974696;28;20448;-78
2022/09/04 02:18:44;;;;;;;8.90;6.40;;;23.80;35.40;;;;;;4975096;28;20429;-78
2022/09/04 02:21:16;;;;;;;14.93;7.83;;;23.70;35.70;;;;;;4974681;28;20461;-77
2022/09/04 02:23:45;;;;;;;16.83;8.70;;;23.70;35.70;;;;;;4974241;28;20420;-78
2022/09/04 02:26:15;;;;;;;9.83;7.30;;;23.70;36.00;;;;;;4974134;28;20485;-78
2022/09/04 02:28:50;;;;;;;9.20;8.30;;;23.70;35.90;;;;;;4975525;28;20442;-77
2022/09/04 02:31:23;;;;;;;12.00;7.97;;;23.70;35.90;;;;;;4986009;28;20444;-77
2022/09/04 02:33:54;;;;;;;11.60;7.73;;;23.70;35.80;;;;;;4974727;28;20497;-77
2022/09/04 02:36:24;;;;;;;8.57;6.77;;;23.60;35.90;;;;;;4974615;28;20445;-77
2022/09/04 02:38:55;;;;;;;8.10;6.50;;;23.50;36.00;;;;;;4974648;28;20449;-77
2022/09/04 02:41:26;;;;;;;8.60;5.90;;;23.50;36.20;;;;;;4974920;28;20540;-77
2022/09/04 02:44:08;;;;;;;6.97;6.23;;;23.50;36.30;;;;;;4974746;28;20513;-78
2022/09/04 02:46:40;;;;;;;6.87;5.67;;;23.50;36.20;;;;;;4982281;28;20462;-77
2022/09/04 02:49:13;;;;;;;7.03;5.80;;;23.50;37.00;;;;;;4990262;28;20436;-78
2022/09/04 02:51:52;;;;;;;6.67;5.97;;;23.50;36.30;;;;;;4994911;28;20526;-77
2022/09/04 02:54:30;;;;;;;11.80;5.90;;;23.40;36.20;;;;;;4994623;28;20449;-77
2022/09/04 02:57:00;;;;;;;13.27;5.40;;;23.30;36.20;;;;;;4993930;28;20475;-77
2022/09/04 02:59:35;;;;;;;14.63;5.90;;;23.40;36.50;;;;;;4994795;28;20537;-78
2022/09/04 03:02:04;;;;;;;9.17;5.10;;;23.40;36.20;;;;;;4989695;28;20471;-78
2022/09/04 03:04:35;;;;;;;10.90;5.70;;;23.30;36.40;;;;;;4987795;28;20497;-78
2022/09/04 03:07:09;;;;;;;5.70;4.80;;;23.30;36.50;;;;;;4997531;28;20458;-78
2022/09/04 03:09:39;;;;;;;7.50;5.90;;;23.30;36.60;;;;;;4997119;28;20457;-78
2022/09/04 03:12:25;;;;;;;9.70;5.37;;;23.30;36.70;;;;;;4996788;28;20483;-78
2022/09/04 03:14:59;;;;;;;7.93;5.37;;;23.20;36.40;;;;;;4996666;28;20496;-78
2022/09/04 03:17:29;;;;;;;8.17;6.90;;;23.20;36.70;;;;;;4997212;28;20433;-78
2022/09/04 03:20:00;;;;;;;17.20;7.43;;;23.20;36.50;;;;;;4988703;28;20551;-78
2022/09/04 03:22:30;;;;;;;10.40;6.90;;;23.20;36.70;;;;;;4997685;28;20451;-78
2022/09/04 03:25:02;;;;;;;12.60;7.37;;;23.10;36.70;;;;;;4997730;28;21075;-78
2022/09/04 03:27:31;;;;;;;10.07;6.90;;;23.00;36.80;;;;;;5001119;28;20493;-78
2022/09/04 03:30:02;;;;;;;8.40;6.70;;;23.10;37.10;;;;;;4998093;28;20728;-78
2022/09/04 03:32:34;;;;;;;8.50;5.40;;;23.10;36.90;;;;;;4996578;28;20520;-78
2022/09/04 03:35:04;;;;;;;7.13;6.33;;;23.00;36.90;;;;;;4988469;28;20481;-78
2022/09/04 03:37:47;;;;;;;11.70;6.50;;;23.00;36.90;;;;;;4994317;28;20472;-78
2022/09/04 03:40:45;;;;;;;8.67;7.30;;;23.00;36.80;;;;;;4996205;28;20464;-78
2022/09/04 03:43:23;;;;;;;12.10;8.40;;;23.10;37.20;;;;;;4916528;29;20535;-78
2022/09/04 03:45:56;;;;;;;9.70;8.20;;;23.10;37.00;;;;;;4984171;28;20475;-78
2022/09/04 03:48:30;;;;;;;10.30;8.37;;;23.00;36.80;;;;;;4995999;28;20408;-77
2022/09/04 03:51:01;;;;;;;11.97;8.80;;;22.80;37.20;;;;;;4992168;28;20462;-78
2022/09/04 03:53:32;;;;;;;12.90;8.97;;;22.90;37.50;;;;;;4988319;28;20459;-78
2022/09/04 03:56:20;;;;;;;15.87;10.60;;;22.80;37.30;;;;;;4996757;28;20453;-78
2022/09/04 03:58:51;;;;;;;14.13;10.73;;;22.70;37.30;;;;;;4996441;28;20416;-78
2022/09/04 04:01:23;;;;;;;13.57;10.17;;;22.60;37.80;;;;;;4996444;28;20443;-77
2022/09/04 04:04:04;;;;;;;11.20;8.40;;;22.70;37.70;;;;;;4995867;28;20433;-77
2022/09/04 04:06:34;;;;;;;11.37;7.10;;;22.80;37.50;;;;;;4994058;28;20497;-77
2022/09/04 04:09:19;;;;;;;13.10;7.10;;;22.80;37.60;;;;;;4975729;28;20438;-77
2022/09/04 04:12:11;;;;;;;9.07;6.40;;;22.80;37.70;;;;;;4976242;28;20441;-78
2022/09/04 04:14:50;;;;;;;9.10;6.30;;;22.70;37.60;;;;;;4975621;28;20517;-77
2022/09/04 04:17:29;;;;;;;5.93;5.00;;;22.80;37.60;;;;;;4976926;28;20442;-77
2022/09/04 04:20:04;;;;;;;5.87;4.63;;;22.80;37.80;;;;;;4976474;28;20445;-77
2022/09/04 04:22:54;;;;;;;5.10;4.50;;;22.70;37.60;;;;;;4975993;28;20505;-77
2022/09/04 04:25:40;;;;;;;4.47;4.03;;;22.70;37.80;;;;;;4984341;28;20477;-77
2022/09/04 04:28:18;;;;;;;5.40;4.10;;;22.70;37.70;;;;;;4989467;28;20475;-77
2022/09/04 04:30:48;;;;;;;6.30;3.83;;;22.60;37.70;;;;;;4994699;28;20495;-77
2022/09/04 04:33:41;;;;;;;6.50;3.40;;;22.80;38.00;;;;;;4994828;28;20441;-77
2022/09/04 04:36:16;;;;;;;3.80;3.00;;;22.70;37.70;;;;;;4997239;28;20463;-78
2022/09/04 04:38:51;;;;;;;4.43;3.20;;;22.70;37.60;;;;;;4997304;28;20428;-78
2022/09/04 04:42:02;;;;;;;5.40;3.67;;;22.70;37.70;;;;;;4985524;28;20449;-78
2022/09/04 04:45:48;;;;;;;4.90;3.83;;;22.60;37.80;;;;;;4995785;28;20430;-78
2022/09/04 04:47:21;;;;;;;4.53;3.53;;;22.60;37.90;;;;;;4993972;28;20477;-77
2022/09/04 04:49:57;;;;;;;6.70;3.07;;;22.60;37.80;;;;;;4994036;28;20453;-77
2022/09/04 04:52:29;;;;;;;4.63;2.97;;;22.50;37.80;;;;;;4993856;28;20414;-77
2022/09/04 04:55:20;;;;;;;3.10;2.83;;;22.50;38.10;;;;;;4992986;28;20536;-77
2022/09/04 04:57:55;;;;;;;3.23;3.03;;;22.40;37.90;;;;;;4992654;28;20444;-78
2022/09/04 05:00:27;;;;;;;4.60;2.93;;;22.60;38.10;;;;;;4996064;28;20449;-77
2022/09/04 05:03:01;;;;;;;3.13;2.70;;;22.60;38.00;;;;;;4996183;28;20449;-78
2022/09/04 05:05:46;;;;;;;3.97;2.77;;;22.50;38.10;;;;;;4996078;28;20503;-78
2022/09/04 05:08:18;;;;;;;4.97;2.80;;;22.50;38.10;;;;;;4996010;28;20472;-78
2022/09/04 05:10:48;;;;;;;4.77;2.93;;;22.60;38.10;;;;;;4996189;28;20441;-78
2022/09/04 05:13:24;;;;;;;2.73;2.60;;;22.50;38.00;;;;;;4988792;28;20455;-78
2022/09/04 05:15:55;;;;;;;6.37;2.40;;;22.50;38.30;;;;;;4976339;28;20462;-78
2022/09/04 05:18:38;;;;;;;4.37;2.47;;;22.60;38.20;;;;;;4976045;28;20452;-78
2022/09/04 05:21:09;;;;;;;3.53;2.90;;;22.50;38.00;;;;;;4975808;28;20444;-77
2022/09/04 05:23:39;;;;;;;6.00;5.00;;;22.50;38.10;;;;;;4975287;28;20537;-78
2022/09/04 05:26:11;;;;;;;13.00;9.03;;;22.40;38.40;;;;;;4974486;28;20472;-77
2022/09/04 05:28:45;;;;;;;12.40;8.57;;;22.40;38.70;;;;;;4975219;28;20478;-77
2022/09/04 05:31:18;;;;;;;9.57;6.83;;;22.50;38.60;;;;;;4974883;28;20562;-77
2022/09/04 05:33:51;;;;;;;6.40;4.93;;;22.50;38.50;;;;;;4986395;28;20527;-77
2022/09/04 05:36:26;;;;;;;5.23;4.27;;;22.60;38.40;;;;;;4993436;28;20453;-77
2022/09/04 05:38:58;;;;;;;4.00;3.60;;;22.50;38.30;;;;;;4994549;28;20884;-78
2022/09/04 05:41:39;;;;;;;3.80;3.50;;;22.40;38.60;;;;;;4994021;28;20498;-77
2022/09/04 05:44:26;;;;;;;7.07;3.53;;;22.50;38.60;;;;;;4994594;28;20448;-78
2022/09/04 05:47:02;;;;;;;4.73;3.10;;;22.50;38.40;;;;;;4986866;28;20508;-77
2022/09/04 05:49:38;;;;;;;5.03;3.40;;;22.40;38.50;;;;;;4981289;28;20521;-77
2022/09/04 05:52:36;;;;;;;6.20;3.23;;;22.50;38.70;;;;;;4973235;28;20415;-77
2022/09/04 05:55:24;;;;;;;3.23;2.93;;;22.40;38.80;;;;;;4973039;28;20470;-77
2022/09/04 05:58:00;;;;;;;5.07;3.17;;;22.50;38.80;;;;;;4973393;28;20417;-77
2022/09/04 06:00:29;;;;;;;4.23;2.90;;;22.50;38.60;;;;;;4973364;28;20487;-78
2022/09/04 06:03:32;;;;;;;3.00;2.80;;;22.60;38.60;;;;;;4973625;28;20442;-77
2022/09/04 06:06:22;;;;;;;3.40;2.97;;;22.60;38.80;;;;;;4985363;28;20504;-77
2022/09/04 06:09:11;;;;;;;3.03;2.33;;;22.70;38.80;;;;;;4969365;28;20417;-77
2022/09/04 06:11:57;;;;;;;3.43;2.83;;;22.70;38.60;;;;;;4972936;28;20534;-77
2022/09/04 06:14:45;;;;;;;4.37;2.77;;;22.50;38.60;;;;;;4973462;28;20819;-77
2022/09/04 06:17:23;;;;;;;3.83;2.70;;;22.60;38.50;;;;;;4973300;28;20478;-77
2022/09/04 06:20:21;;;;;;;2.80;2.60;;;22.60;38.80;;;;;;4973190;28;20450;-77
2022/09/04 06:22:55;;;;;;;3.87;2.50;;;22.70;38.70;;;;;;4975664;28;20544;-76
2022/09/04 06:25:38;;;;;;;3.00;2.30;;;22.80;38.80;;;;;;4984646;28;20468;-77
2022/09/04 06:28:37;;;;;;;3.10;2.80;;;22.80;38.70;;;;;;4992751;28;20416;-78
2022/09/04 06:31:10;;;;;;;3.17;2.97;;;22.90;38.70;;;;;;4992760;28;20449;-77
2022/09/04 06:33:48;;;;;;;6.13;2.80;;;23.00;38.60;;;;;;4992774;28;20420;-77
2022/09/04 06:36:24;;;;;;;4.23;2.67;;;22.80;38.50;;;;;;4992811;28;20507;-76
2022/09/04 06:39:16;;;;;;;2.70;2.50;;;22.70;39.00;;;;;;4996364;28;20476;-77
2022/09/04 06:41:59;;;;;;;2.70;2.50;;;22.90;39.20;;;;;;4984904;28;20458;-77
2022/09/04 06:44:35;;;;;;;3.93;2.30;;;22.90;39.00;;;;;;4994024;28;20420;-76
2022/09/04 06:47:09;;;;;;;2.57;2.37;;;22.90;39.30;;;;;;4995912;28;20441;-76
2022/09/04 06:49:41;;;;;;;4.73;2.40;;;22.90;39.20;;;;;;4995931;28;20519;-76
2022/09/04 06:52:13;;;;;;;4.30;2.63;;;23.00;39.00;;;;;;4996024;28;20448;-76
2022/09/04 06:54:47;;;;;;;2.50;2.40;;;23.10;38.80;;;;;;4996009;28;20461;-77
2022/09/04 06:57:31;;;;;;;4.57;2.80;;;23.20;38.80;;;;;;4990639;28;20440;-77
2022/09/04 07:00:04;;;;;;;2.63;2.53;;;23.30;38.60;;;;;;4976875;28;20480;-77
2022/09/04 07:03:06;;;;;;;2.70;2.50;;;23.30;38.50;;;;;;4976441;28;20416;-77
2022/09/04 07:05:39;;;;;;;3.23;2.50;;;23.20;38.80;;;;;;4942002;28;20428;-77
2022/09/04 07:08:12;;;;;;;2.60;2.40;;;23.30;39.00;;;;;;4976014;28;20449;-77
2022/09/04 07:10:42;;;;;;;2.40;2.30;;;23.30;38.70;;;;;;4976058;28;20484;-77
2022/09/04 07:13:46;;;;;;;3.33;3.03;;;23.30;38.90;;;;;;4976181;28;20453;-77
2022/09/04 07:16:30;;;;;;;3.47;3.17;;;23.40;38.80;;;;;;4977001;28;20507;-77
2022/09/04 07:19:19;;;;;;;7.90;4.57;;;23.40;38.80;;;;;;4976986;28;20481;-77
2022/09/04 07:21:51;;;;;;;8.40;4.20;;;23.40;39.10;;;;;;4964926;28;20450;-77
2022/09/04 07:24:47;;;;;;;6.33;3.60;;;23.50;39.20;;;;;;4977236;28;20517;-77
2022/09/04 07:27:17;;;;;;;3.87;3.50;;;23.50;39.20;;;;;;4977417;28;20521;-77
2022/09/04 07:29:48;;;;;;;3.70;3.40;;;23.70;39.10;;;;;;4976426;28;20828;-77
2022/09/04 07:32:19;;;;;;;4.23;3.30;;;23.60;38.90;;;;;;4977322;28;20419;-77
2022/09/04 07:34:49;;;;;;;2.63;2.53;;;23.70;39.00;;;;;;4976853;28;20439;-77
2022/09/04 07:37:26;;;;;;;5.33;3.50;;;23.60;39.30;;;;;;4977088;28;20442;-77
2022/09/04 07:39:59;;;;;;;5.00;4.20;;;23.60;39.50;;;;;;4976793;28;20493;-78
2022/09/04 07:42:30;;;;;;;4.73;3.97;;;23.70;39.90;;;;;;4977849;28;20533;-78
2022/09/04 07:45:03;;;;;;;4.60;3.70;;;23.70;39.70;;;;;;4984721;28;20505;-77
2022/09/04 07:47:34;;;;;;;4.40;3.60;;;23.80;39.70;;;;;;4995435;28;20452;-77
2022/09/04 07:50:06;;;;;;;4.17;3.60;;;23.80;39.80;;;;;;4996487;28;20437;-77
2022/09/04 07:53:03;;;;;;;3.77;2.93;;;24.00;39.80;;;;;;4996319;28;20456;-78
2022/09/04 07:55:39;;;;;;;3.70;3.40;;;24.00;39.80;;;;;;4986739;28;20465;-78
2022/09/04 07:58:27;;;;;;;4.37;3.97;;;24.20;39.90;;;;;;4996169;28;20535;-78
2022/09/04 08:01:04;;;;;;;4.70;4.10;;;24.40;39.90;;;;;;4995358;28;20457;-78
2022/09/04 08:03:40;;;;;;;5.90;5.30;;;24.60;40.10;;;;;;4988418;28;20419;-77
2022/09/04 08:06:23;;;;;;;5.07;4.60;;;24.70;39.70;;;;;;5006399;28;20449;-78
2022/09/04 08:09:14;;;;;;;6.40;4.00;;;25.00;39.60;;;;;;5000750;28;20420;-78
2022/09/04 08:12:04;;;;;;;4.87;4.47;;;25.30;39.20;;;;;;4999548;28;20437;-78
2022/09/04 08:15:03;;;;;;;6.47;5.77;;;25.60;38.90;;;;;;4997742;28;20449;-78
2022/09/04 08:17:41;;;;;;;10.80;6.60;;;25.80;38.70;;;;;;4994399;28;20432;-77
2022/09/04 08:20:19;;;;;;;9.73;5.67;;;26.00;38.10;;;;;;4984998;28;20887;-78
2022/09/04 08:22:58;;;;;;;4.70;4.20;;;26.10;38.10;;;;;;4977406;28;21027;-77
2022/09/04 08:25:28;;;;;;;13.27;4.67;;;26.30;37.60;;;;;;4977848;28;20447;-77
2022/09/04 08:28:09;;;;;;;6.27;3.90;;;26.50;38.00;;;;;;4976476;28;20450;-77
2022/09/04 08:30:42;;;;;;;3.77;3.47;;;26.60;37.40;;;;;;4981563;28;20449;-76
2022/09/04 08:33:38;;;;;;;5.87;3.60;;;26.70;37.70;;;;;;4993417;28;20428;-78
2022/09/04 08:36:09;;;;;;;4.50;3.60;;;27.00;37.40;;;;;;4974415;28;20755;-77
2022/09/04 08:38:45;;;;;;;3.70;3.40;;;27.20;37.00;;;;;;4973966;28;20529;-77
2022/09/04 08:41:47;;;;;;;3.73;3.43;;;27.40;36.70;;;;;;4976509;28;20520;-78
2022/09/04 08:44:42;;;;;;;3.83;3.50;;;27.60;36.50;;;;;;4955964;28;20507;-78
2022/09/04 08:47:30;;;;;;;3.87;3.57;;;27.90;36.30;;;;;;4979032;28;20500;-78
2022/09/04 08:50:12;;;;;;;4.80;3.27;;;28.10;35.90;;;;;;4977705;28;20889;-78
2022/09/04 08:53:06;;;;;;;6.50;3.20;;;28.30;35.70;;;;;;4978218;28;20523;-78
2022/09/04 08:55:41;;;;;;;5.47;4.00;;;28.50;35.50;;;;;;4978037;28;21032;-78
2022/09/04 08:58:30;;;;;;;3.60;3.30;;;28.70;35.40;;;;;;4978992;28;20417;-79
2022/09/04 09:01:21;;;;;;;5.30;3.43;;;28.90;34.90;;;;;;4966558;28;20430;-79
2022/09/04 09:04:17;;;;;;;4.33;4.03;;;29.20;34.60;;;;;;4976869;28;20444;-79
2022/09/04 09:07:07;;;;;;;4.07;3.70;;;29.40;34.20;;;;;;4977056;28;20421;-79
2022/09/04 09:09:52;;;;;;;4.13;3.70;;;29.60;33.90;;;;;;4976930;28;20533;-79
2022/09/04 09:12:44;;;;;;;4.10;3.43;;;29.80;33.60;;;;;;4977110;28;20441;-78
2022/09/04 09:15:43;;;;;;;3.67;3.37;;;29.90;33.40;;;;;;4976555;28;20470;-79
2022/09/04 09:18:23;;;;;;;4.67;3.90;;;30.10;33.40;;;;;;4980236;28;20452;-79
2022/09/04 09:20:56;;;;;;;7.33;3.53;;;30.20;33.00;;;;;;4983085;28;20474;-79
2022/09/04 09:23:35;;;;;;;4.20;3.80;;;30.30;33.00;;;;;;5002294;28;20496;-78
2022/09/04 09:26:28;;;;;;;4.23;3.77;;;30.50;32.90;;;;;;4996330;28;20491;-79
2022/09/04 09:29:26;;;;;;;5.37;3.70;;;30.80;32.60;;;;;;4996383;28;20448;-79
2022/09/04 09:32:35;;;;;;;3.57;3.27;;;31.00;32.20;;;;;;4996863;28;20536;-79
2022/09/04 09:35:35;;;;;;;5.30;4.17;;;31.10;32.10;;;;;;4997036;28;20564;-79
2022/09/04 09:38:30;;;;;;;11.37;3.83;;;31.30;32.00;;;;;;4989242;28;20477;-78
2022/09/04 09:41:19;;;;;;;4.30;3.90;;;31.60;31.70;;;;;;4976859;28;20557;-79
2022/09/04 09:44:17;;;;;;;7.00;3.70;;;31.80;31.40;;;;;;4976878;28;20437;-79
2022/09/04 09:46:57;;;;;;;3.90;3.60;;;32.00;31.20;;;;;;4976717;28;20446;-79
2022/09/04 09:49:52;;;;;;;4.60;4.20;;;32.20;31.30;;;;;;4977265;28;20493;-79
2022/09/04 09:52:31;;;;;;;4.23;3.90;;;32.40;31.10;;;;;;4977116;28;20527;-79
2022/09/04 09:55:32;;;;;;;5.10;4.30;;;32.60;30.60;;;;;;4976605;28;20499;-79
2022/09/04 09:58:34;;;;;;;4.40;4.10;;;32.80;30.40;;;;;;4975296;28;20446;-79
2022/09/04 10:01:09;;;;;;;8.00;7.30;;;32.90;30.00;;;;;;4964871;28;20512;-79
2022/09/04 10:04:16;;;;;;;9.57;6.67;;;33.30;29.90;;;;;;4975638;28;20449;-78
2022/09/04 10:07:18;;;;;;;7.00;5.27;;;33.50;29.70;;;;;;4970151;28;20465;-78
2022/09/04 10:10:23;;;;;;;5.60;5.10;;;33.70;29.40;;;;;;4975898;28;20488;-78
2022/09/04 10:13:02;;;;;;;6.93;6.00;;;34.00;29.30;;;;;;4977915;28;20458;-78
2022/09/04 10:15:51;;;;;;;6.00;5.50;;;34.30;29.10;;;;;;4979577;28;20517;-78
2022/09/04 10:18:34;;;;;;;7.60;6.80;;;34.50;28.70;;;;;;4979640;28;20488;-78
2022/09/04 10:21:19;;;;;;;8.33;7.53;;;34.70;28.50;;;;;;4979470;28;20564;-78
2022/09/04 10:24:11;;;;;;;6.33;5.83;;;34.90;28.20;;;;;;4978973;28;20476;-79
2022/09/04 10:27:06;;;;;;;5.97;4.70;;;35.10;28.20;;;;;;4980057;28;20525;-78
2022/09/04 10:29:45;;;;;;;5.17;4.50;;;35.30;28.10;;;;;;4983053;28;20545;-78
2022/09/04 10:32:38;;;;;;;4.23;3.93;;;35.60;27.90;;;;;;4993998;28;20487;-78
2022/09/04 10:35:18;;;;;;;4.30;3.90;;;35.70;27.50;;;;;;4997392;28;20560;-78
2022/09/04 10:38:25;;;;;;;4.10;3.77;;;35.70;27.70;;;;;;4997229;28;20521;-79
2022/09/04 10:41:16;;;;;;;4.67;3.10;;;36.00;27.30;;;;;;4997613;28;20469;-79
2022/09/04 10:44:14;;;;;;;2.90;2.80;;;36.50;27.20;;;;;;4997625;28;20449;-77
2022/09/04 10:46:47;;;;;;;4.77;3.30;;;36.70;26.80;;;;;;4985075;28;20476;-78
2022/09/04 10:49:25;;;;;;;4.50;3.37;;;36.90;26.60;;;;;;4978254;28;20485;-78
2022/09/04 10:52:35;;;;;;;8.20;2.77;;;37.00;26.60;;;;;;4978412;28;20481;-78
2022/09/04 10:55:20;;;;;;;5.43;2.60;;;37.20;26.50;;;;;;4947158;28;20470;-78
2022/09/04 10:57:55;;;;;;;3.10;2.60;;;37.30;26.20;;;;;;4978529;28;20442;-77
2022/09/04 11:00:27;;;;;;;3.17;2.93;;;37.50;25.70;;;;;;4978496;28;20480;-78
2022/09/04 11:03:32;;;;;;;3.67;2.60;;;37.70;25.70;;;;;;4997392;28;20456;-79
2022/09/04 11:06:24;;;;;;;2.50;2.40;;;37.90;25.50;;;;;;4939538;29;20474;-78
2022/09/04 11:12:08;;;;;;;2.80;2.60;;;38.50;25.10;;;;;;4998849;28;20490;-78
2022/09/04 11:14:52;;;;;;;3.57;2.67;;;39.00;24.50;;;;;;4996335;28;20437;-78
2022/09/04 11:17:51;;;;;;;2.33;2.30;;;39.80;24.60;;;;;;5022675;28;20528;-78
2022/09/04 11:20:54;;;;;;;4.20;3.90;;;41.10;23.50;;;;;;4998030;28;20511;-78
2022/09/04 11:23:56;;;;;;;3.87;3.67;;;42.40;22.90;;;;;;4978696;28;20498;-78
2022/09/04 11:26:38;;;;;;;3.10;2.30;;;43.90;21.80;;;;;;4959408;28;20496;-80
2022/09/04 11:29:32;;;;;;;4.70;3.50;;;43.60;20.40;;;;;;4981497;28;20473;-81
2022/09/04 11:32:11;;;;;;;3.83;3.53;;;43.30;21.20;;;;;;4977674;28;20453;-81
2022/09/04 11:35:18;;;;;;;6.77;2.90;;;43.20;20.90;;;;;;4985036;28;20543;-81
2022/09/04 11:38:12;;;;;;;2.90;2.70;;;42.90;21.20;;;;;;4990861;28;20492;-81
2022/09/04 11:41:19;;;;;;;4.67;2.93;;;43.60;21.00;;;;;;4969059;28;20505;-80
2022/09/04 11:44:11;;;;;;;7.13;2.87;;;43.80;20.40;;;;;;4981279;28;20540;-80
2022/09/04 11:47:02;;;;;;;2.40;2.20;;;43.20;20.10;;;;;;4979832;28;20601;-80
2022/09/04 11:49:42;;;;;;;2.73;2.50;;;42.70;20.70;;;;;;4980469;28;20534;-80
2022/09/04 11:52:22;;;;;;;10.23;2.20;;;43.60;20.30;;;;;;4987979;28;20484;-81
2022/09/04 11:55:01;;;;;;;2.50;1.80;;;43.30;20.70;;;;;;4987290;28;20556;-80
2022/09/04 11:57:36;;;;;;;6.40;2.60;;;43.10;20.30;;;;;;4980910;28;20441;-80
2022/09/04 12:00:11;;;;;;;2.60;2.50;;;43.70;20.50;;;;;;4980023;28;20476;-81
2022/09/04 12:03:01;;;;;;;2.30;1.93;;;44.10;20.00;;;;;;4981613;28;20524;-79
2022/09/04 12:05:39;;;;;;;2.70;2.10;;;44.10;20.00;;;;;;4982992;28;20477;-80
2022/09/04 12:08:18;;;;;;;4.67;2.23;;;44.20;20.00;;;;;;4984866;28;20453;-81
2022/09/04 12:10:54;;;;;;;3.17;1.90;;;44.10;19.60;;;;;;4995053;28;20501;-82
2022/09/04 12:13:45;;;;;;;3.43;1.60;;;44.70;19.60;;;;;;5002679;28;20471;-82
2022/09/04 12:16:43;;;;;;;2.03;1.90;;;44.60;19.60;;;;;;5002996;28;20472;-82
2022/09/04 12:19:49;;;;;;;1.50;1.50;;;44.70;19.60;;;;;;5003072;28;20455;-82
2022/09/04 12:22:50;;;;;;;2.17;2.07;;;45.30;18.90;;;;;;4997281;28;20440;-82
2022/09/04 12:25:38;;;;;;;3.43;2.30;;;45.70;18.40;;;;;;4993619;28;20469;-82
2022/09/04 12:28:21;;;;;;;4.77;2.77;;;44.10;19.50;;;;;;4953023;28;20540;-79
2022/09/04 12:30:57;;;;;;;2.97;2.87;;;44.00;19.80;;;;;;4984515;28;20469;-79
2022/09/04 12:34:08;;;;;;;17.90;4.60;;;43.60;20.20;;;;;;4980255;28;20451;-78
2022/09/04 12:37:05;;;;;;;4.50;4.13;;;41.40;21.10;;;;;;4993345;28;20453;-77
2022/09/04 12:40:07;;;;;;;2.73;2.60;;;39.50;22.90;;;;;;4994825;28;20432;-77
2022/09/04 12:42:37;;;;;;;5.13;3.00;;;38.30;23.50;;;;;;4994896;28;20425;-77
2022/09/04 12:45:10;;;;;;;3.60;3.40;;;36.80;25.20;;;;;;4994832;28;20453;-77
2022/09/04 12:47:44;;;;;;;4.33;3.53;;;36.20;25.50;;;;;;4994512;28;20420;-77
2022/09/04 12:50:29;;;;;;;4.63;2.83;;;35.70;26.20;;;;;;4994413;28;20420;-77
2022/09/04 12:53:10;;;;;;;4.87;2.90;;;35.20;26.50;;;;;;4995033;28;20439;-78
2022/09/04 12:55:44;;;;;;;2.73;2.47;;;35.00;26.90;;;;;;4994581;28;20553;-78
2022/09/04 12:58:17;;;;;;;6.80;2.73;;;34.90;27.40;;;;;;4994775;28;20966;-77
2022/09/04 13:00:49;;;;;;;3.00;2.90;;;34.50;27.50;;;;;;4995856;28;20447;-78
2022/09/04 13:03:21;;;;;;;6.27;2.63;;;34.30;27.60;;;;;;4996664;28;20449;-77
2022/09/04 13:06:03;;;;;;;2.60;2.43;;;34.10;28.20;;;;;;4994510;28;20473;-78
2022/09/04 13:08:38;;;;;;;3.03;2.57;;;33.90;28.30;;;;;;4994891;28;20449;-78
2022/09/04 13:11:14;;;;;;;2.80;2.57;;;33.90;28.50;;;;;;4993979;28;20850;-78
2022/09/04 13:13:46;;;;;;;3.40;3.20;;;33.70;28.20;;;;;;4994127;28;20451;-78
2022/09/04 13:16:17;;;;;;;7.57;2.60;;;33.40;28.50;;;;;;4994310;28;20463;-78
2022/09/04 13:18:58;;;;;;;8.00;2.33;;;33.40;28.60;;;;;;4996100;28;20457;-79
2022/09/04 13:21:43;;;;;;;4.60;2.30;;;33.10;28.50;;;;;;5003968;28;20460;-77
2022/09/04 13:24:18;;;;;;;4.00;2.60;;;33.10;28.80;;;;;;4994829;28;20500;-78
2022/09/04 13:26:55;;;;;;;4.27;2.67;;;33.10;28.80;;;;;;4994540;28;20425;-77
2022/09/04 13:29:39;;;;;;;2.40;2.30;;;33.10;28.90;;;;;;4995026;28;20457;-77
2022/09/04 13:32:22;;;;;;;2.67;2.50;;;33.00;28.80;;;;;;4993636;28;20988;-76
2022/09/04 13:35:00;;;;;;;2.67;2.47;;;33.00;28.90;;;;;;4993548;28;20520;-78
2022/09/04 13:37:33;;;;;;;2.53;2.33;;;33.00;29.00;;;;;;4993508;28;20425;-76
2022/09/04 13:40:14;;;;;;;3.43;2.80;;;32.90;28.90;;;;;;4993765;28;20528;-77
2022/09/04 13:43:20;;;;;;;4.50;2.60;;;32.90;29.10;;;;;;4994560;28;20516;-77
2022/09/04 13:45:49;;;;;;;6.93;2.80;;;32.90;29.30;;;;;;4980174;28;20556;-77
2022/09/04 13:48:22;;;;;;;5.03;2.40;;;33.00;29.20;;;;;;4992132;28;20438;-77
2022/09/04 13:50:54;;;;;;;2.87;2.73;;;32.10;29.60;;;;;;4979493;28;20461;-77
2022/09/04 13:53:24;;;;;;;3.37;2.83;;;32.20;29.80;;;;;;4998025;28;20564;-77
2022/09/04 13:55:56;;;;;;;6.73;2.40;;;32.30;30.20;;;;;;4992904;28;20512;-77
2022/09/04 13:58:26;;;;;;;3.10;2.70;;;32.40;29.70;;;;;;4993132;28;20449;-77